sensor_id;sensor_type;location;lat;lon;timestamp;pressure;altitude;pressure_sealevel;temperature;humidity
51759;BME280;66684;47.568;18.734;2023-04-27T00:01:43;99667.78;;;3.41;81.04
51759;BME280;66684;47.568;18.734;2023-04-27T00:04:09;99676.03;;;3.13;82.79
51759;BME280;66684;47.568;18.734;2023-04-27T00:06:35;99672.75;;;3.14;83.49
51759;BME280;66684;47.568;18.734;2023-04-27T00:09:01;99668.63;;;3.16;83.65
51759;BME280;66684;47.568;18.734;2023-04-27T00:11:28;99670.81;;;3.23;83.29
51759;BME280;66684;47.568;18.734;2023-04-27T00:13:54;99675.38;;;3.28;83.15
51759;BME280;66684;47.568;18.734;2023-04-27T00:16:20;99675.44;;;3.41;82.54
51759;BME280;66684;47.568;18.734;2023-04-27T00:18:46;99676.84;;;3.49;83.48
51759;BME280;66684;47.568;18.734;2023-04-27T00:21:12;99681.19;;;2.66;88.25
51759;BME280;66684;47.568;18.734;2023-04-27T00:23:38;99681.09;;;2.77;87.70
51759;BME280;66684;47.568;18.734;2023-04-27T00:26:04;99673.19;;;2.97;86.16
51759;BME280;66684;47.568;18.734;2023-04-27T00:28:30;99675.41;;;3.04;86.44
51759;BME280;66684;47.568;18.734;2023-04-27T00:30:56;99666.19;;;3.06;87.34
51759;BME280;66684;47.568;18.734;2023-04-27T00:33:21;99674.94;;;3.21;87.33
51759;BME280;66684;47.568;18.734;2023-04-27T00:35:47;99668.63;;;3.16;87.16
51759;BME280;66684;47.568;18.734;2023-04-27T00:38:13;99671.69;;;3.24;86.37
51759;BME280;66684;47.568;18.734;2023-04-27T00:40:39;99671.66;;;3.36;85.55
51759;BME280;66684;47.568;18.734;2023-04-27T00:43:05;99671.13;;;3.40;85.62
51759;BME280;66684;47.568;18.734;2023-04-27T00:45:31;99668.22;;;3.47;85.34
51759;BME280;66684;47.568;18.734;2023-04-27T00:48:00;99669.97;;;3.48;85.23
51759;BME280;66684;47.568;18.734;2023-04-27T00:50:27;99671.97;;;3.52;85.15
51759;BME280;66684;47.568;18.734;2023-04-27T00:52:56;99661.94;;;3.55;84.78
51759;BME280;66684;47.568;18.734;2023-04-27T00:55:23;99667.19;;;3.45;85.06
51759;BME280;66684;47.568;18.734;2023-04-27T00:57:49;99663.59;;;3.30;86.34
51759;BME280;66684;47.568;18.734;2023-04-27T01:00:15;99667.34;;;3.35;86.81
51759;BME280;66684;47.568;18.734;2023-04-27T01:02:41;99664.94;;;3.24;87.77
51759;BME280;66684;47.568;18.734;2023-04-27T01:05:08;99669.94;;;3.23;86.98
51759;BME280;66684;47.568;18.734;2023-04-27T01:07:39;99673.00;;;3.31;87.08
51759;BME280;66684;47.568;18.734;2023-04-27T01:10:06;99669.38;;;3.27;87.73
51759;BME280;66684;47.568;18.734;2023-04-27T01:12:32;99661.84;;;3.05;88.85
51759;BME280;66684;47.568;18.734;2023-04-27T01:14:58;99663.44;;;2.80;91.56
51759;BME280;66684;47.568;18.734;2023-04-27T01:17:24;99665.44;;;2.95;91.03
51759;BME280;66684;47.568;18.734;2023-04-27T01:19:50;99662.22;;;2.98;90.67
51759;BME280;66684;47.568;18.734;2023-04-27T01:22:20;99663.88;;;2.86;91.90
51759;BME280;66684;47.568;18.734;2023-04-27T01:24:46;99675.94;;;3.00;91.30
51759;BME280;66684;47.568;18.734;2023-04-27T01:27:12;99664.09;;;2.89;91.68
51759;BME280;66684;47.568;18.734;2023-04-27T01:29:38;99674.34;;;2.77;92.25
51759;BME280;66684;47.568;18.734;2023-04-27T01:32:04;99666.88;;;2.68;92.12
51759;BME280;66684;47.568;18.734;2023-04-27T01:34:31;99677.19;;;2.70;92.28
51759;BME280;66684;47.568;18.734;2023-04-27T01:36:57;99681.87;;;2.52;92.92
51759;BME280;66684;47.568;18.734;2023-04-27T01:39:23;99681.97;;;2.42;93.85
51759;BME280;66684;47.568;18.734;2023-04-27T01:41:49;99683.19;;;2.47;93.51
51759;BME280;66684;47.568;18.734;2023-04-27T01:44:14;99682.63;;;2.51;93.21
51759;BME280;66684;47.568;18.734;2023-04-27T01:46:40;99678.19;;;2.60;92.74
51759;BME280;66684;47.568;18.734;2023-04-27T01:49:06;99685.41;;;2.54;92.55
51759;BME280;66684;47.568;18.734;2023-04-27T01:51:32;99685.81;;;2.37;94.07
51759;BME280;66684;47.568;18.734;2023-04-27T01:53:58;99682.03;;;2.08;95.62
51759;BME280;66684;47.568;18.734;2023-04-27T01:56:24;99681.56;;;2.02;96.08
51759;BME280;66684;47.568;18.734;2023-04-27T01:58:51;99689.72;;;1.98;96.43
51759;BME280;66684;47.568;18.734;2023-04-27T02:01:17;99688.75;;;1.96;96.36
51759;BME280;66684;47.568;18.734;2023-04-27T02:03:43;99683.50;;;1.83;96.96
51759;BME280;66684;47.568;18.734;2023-04-27T02:06:09;99697.69;;;1.91;97.49
51759;BME280;66684;47.568;18.734;2023-04-27T02:08:35;99692.53;;;2.01;96.54
51759;BME280;66684;47.568;18.734;2023-04-27T02:11:01;99684.00;;;2.12;96.23
51759;BME280;66684;47.568;18.734;2023-04-27T02:13:27;99683.84;;;2.33;94.52
51759;BME280;66684;47.568;18.734;2023-04-27T02:15:53;99681.66;;;2.73;90.62
51759;BME280;66684;47.568;18.734;2023-04-27T02:18:20;99689.37;;;3.09;87.76
51759;BME280;66684;47.568;18.734;2023-04-27T02:20:46;99695.13;;;3.30;86.03
51759;BME280;66684;47.568;18.734;2023-04-27T02:23:12;99695.75;;;3.39;84.94
51759;BME280;66684;47.568;18.734;2023-04-27T02:25:38;99696.31;;;3.47;84.21
51759;BME280;66684;47.568;18.734;2023-04-27T02:28:07;99699.75;;;3.47;85.04
51759;BME280;66684;47.568;18.734;2023-04-27T02:30:33;99697.56;;;3.29;85.97
51759;BME280;66684;47.568;18.734;2023-04-27T02:32:59;99705.16;;;2.80;88.36
51759;BME280;66684;47.568;18.734;2023-04-27T02:35:25;99698.38;;;2.81;89.22
51759;BME280;66684;47.568;18.734;2023-04-27T02:37:51;99699.81;;;3.12;86.91
51759;BME280;66684;47.568;18.734;2023-04-27T02:40:17;99702.00;;;3.31;85.12
51759;BME280;66684;47.568;18.734;2023-04-27T02:42:43;99703.09;;;3.35;84.24
51759;BME280;66684;47.568;18.734;2023-04-27T02:45:09;99702.09;;;3.33;84.29
51759;BME280;66684;47.568;18.734;2023-04-27T02:47:35;99707.62;;;3.39;83.76
51759;BME280;66684;47.568;18.734;2023-04-27T02:50:01;99705.59;;;2.98;87.07
51759;BME280;66684;47.568;18.734;2023-04-27T02:52:27;99714.75;;;2.37;90.90
51759;BME280;66684;47.568;18.734;2023-04-27T02:54:53;99720.94;;;1.84;95.28
51759;BME280;66684;47.568;18.734;2023-04-27T02:57:19;99728.41;;;1.71;97.48
51759;BME280;66684;47.568;18.734;2023-04-27T02:59:45;99721.59;;;1.59;98.74
51759;BME280;66684;47.568;18.734;2023-04-27T03:02:11;99728.75;;;1.53;99.58
51759;BME280;66684;47.568;18.734;2023-04-27T03:04:36;99731.78;;;1.59;99.18
51759;BME280;66684;47.568;18.734;2023-04-27T03:07:03;99742.84;;;1.82;98.31
51759;BME280;66684;47.568;18.734;2023-04-27T03:09:29;99732.31;;;1.55;99.53
51759;BME280;66684;47.568;18.734;2023-04-27T03:11:55;99733.22;;;1.24;100.00
51759;BME280;66684;47.568;18.734;2023-04-27T03:14:20;99729.06;;;1.46;100.00
51759;BME280;66684;47.568;18.734;2023-04-27T03:16:47;99734.06;;;1.56;100.00
51759;BME280;66684;47.568;18.734;2023-04-27T03:19:13;99734.25;;;1.70;100.00
51759;BME280;66684;47.568;18.734;2023-04-27T03:21:39;99731.47;;;1.67;100.00
51759;BME280;66684;47.568;18.734;2023-04-27T03:24:06;99746.72;;;1.77;100.00
51759;BME280;66684;47.568;18.734;2023-04-27T03:26:31;99745.09;;;1.89;99.90
51759;BME280;66684;47.568;18.734;2023-04-27T03:28:57;99748.84;;;1.82;100.00
51759;BME280;66684;47.568;18.734;2023-04-27T03:31:23;99747.88;;;1.92;99.50
51759;BME280;66684;47.568;18.734;2023-04-27T03:33:49;99741.78;;;1.90;99.51
51759;BME280;66684;47.568;18.734;2023-04-27T03:36:15;99747.03;;;1.81;100.00
51759;BME280;66684;47.568;18.734;2023-04-27T03:38:41;99749.13;;;1.97;99.65
51759;BME280;66684;47.568;18.734;2023-04-27T03:41:07;99751.56;;;2.07;98.92
51759;BME280;66684;47.568;18.734;2023-04-27T03:43:33;99751.81;;;1.77;100.00
51759;BME280;66684;47.568;18.734;2023-04-27T03:45:59;99745.31;;;1.92;100.00
51759;BME280;66684;47.568;18.734;2023-04-27T03:48:24;99757.75;;;1.99;99.66
51759;BME280;66684;47.568;18.734;2023-04-27T03:50:50;99762.44;;;2.05;98.84
51759;BME280;66684;47.568;18.734;2023-04-27T03:53:16;99757.53;;;1.96;99.78
51759;BME280;66684;47.568;18.734;2023-04-27T03:55:43;99770.84;;;1.82;99.36
51759;BME280;66684;47.568;18.734;2023-04-27T03:58:10;99763.06;;;1.91;99.43
51759;BME280;66684;47.568;18.734;2023-04-27T04:00:36;99778.41;;;2.02;98.57
51759;BME280;66684;47.568;18.734;2023-04-27T04:03:03;99769.81;;;1.90;99.10
51759;BME280;66684;47.568;18.734;2023-04-27T04:05:29;99771.28;;;1.98;97.95
51759;BME280;66684;47.568;18.734;2023-04-27T04:07:56;99767.44;;;1.59;100.00
51759;BME280;66684;47.568;18.734;2023-04-27T04:10:22;99764.44;;;1.43;100.00
51759;BME280;66684;47.568;18.734;2023-04-27T04:12:48;99773.03;;;1.55;100.00
51759;BME280;66684;47.568;18.734;2023-04-27T04:15:14;99766.47;;;1.47;100.00
51759;BME280;66684;47.568;18.734;2023-04-27T04:17:41;99770.69;;;1.69;100.00
51759;BME280;66684;47.568;18.734;2023-04-27T04:20:07;99773.78;;;1.86;100.00
51759;BME280;66684;47.568;18.734;2023-04-27T04:22:34;99783.50;;;2.02;100.00
51759;BME280;66684;47.568;18.734;2023-04-27T04:25:00;99779.09;;;2.11;100.00
51759;BME280;66684;47.568;18.734;2023-04-27T04:27:27;99788.44;;;2.23;99.63
51759;BME280;66684;47.568;18.734;2023-04-27T04:29:53;99781.16;;;2.27;99.36
51759;BME280;66684;47.568;18.734;2023-04-27T04:32:20;99779.69;;;2.31;99.62
51759;BME280;66684;47.568;18.734;2023-04-27T04:34:50;99778.28;;;2.34;99.13
51759;BME280;66684;47.568;18.734;2023-04-27T04:37:16;99774.28;;;2.38;99.45
51759;BME280;66684;47.568;18.734;2023-04-27T04:39:43;99777.81;;;2.28;99.82
51759;BME280;66684;47.568;18.734;2023-04-27T04:42:09;99780.91;;;2.24;100.00
51759;BME280;66684;47.568;18.734;2023-04-27T04:44:35;99783.75;;;2.39;100.00
51759;BME280;66684;47.568;18.734;2023-04-27T04:47:01;99788.75;;;2.49;100.00
51759;BME280;66684;47.568;18.734;2023-04-27T04:49:27;99788.09;;;2.63;99.13
51759;BME280;66684;47.568;18.734;2023-04-27T04:51:53;99790.81;;;2.77;98.96
51759;BME280;66684;47.568;18.734;2023-04-27T04:54:19;99796.78;;;2.89;98.72
51759;BME280;66684;47.568;18.734;2023-04-27T04:56:45;99785.06;;;2.91;98.75
51759;BME280;66684;47.568;18.734;2023-04-27T04:59:11;99789.81;;;2.98;99.53
51759;BME280;66684;47.568;18.734;2023-04-27T05:01:37;99789.03;;;2.99;100.00
51759;BME280;66684;47.568;18.734;2023-04-27T05:04:03;99790.72;;;3.10;100.00
51759;BME280;66684;47.568;18.734;2023-04-27T05:06:29;99790.13;;;3.38;100.00
51759;BME280;66684;47.568;18.734;2023-04-27T05:08:55;99786.94;;;3.52;100.00
51759;BME280;66684;47.568;18.734;2023-04-27T05:11:21;99789.41;;;3.75;100.00
51759;BME280;66684;47.568;18.734;2023-04-27T05:13:47;99794.47;;;3.99;99.45
51759;BME280;66684;47.568;18.734;2023-04-27T05:16:12;99802.47;;;4.28;98.15
51759;BME280;66684;47.568;18.734;2023-04-27T05:18:38;99799.91;;;4.28;97.78
51759;BME280;66684;47.568;18.734;2023-04-27T05:21:04;99801.09;;;4.33;98.34
51759;BME280;66684;47.568;18.734;2023-04-27T05:23:30;99808.44;;;4.41;99.40
51759;BME280;66684;47.568;18.734;2023-04-27T05:25:56;99809.06;;;4.63;97.60
51759;BME280;66684;47.568;18.734;2023-04-27T05:28:22;99809.63;;;4.84;94.49
51759;BME280;66684;47.568;18.734;2023-04-27T05:30:48;99811.44;;;5.11;91.58
51759;BME280;66684;47.568;18.734;2023-04-27T05:33:13;99814.47;;;5.46;82.10
51759;BME280;66684;47.568;18.734;2023-04-27T05:35:40;99809.53;;;5.75;78.87
51759;BME280;66684;47.568;18.734;2023-04-27T05:38:06;99813.94;;;5.78;78.87
51759;BME280;66684;47.568;18.734;2023-04-27T05:40:31;99808.69;;;5.89;77.53
51759;BME280;66684;47.568;18.734;2023-04-27T05:42:57;99814.03;;;6.06;75.87
51759;BME280;66684;47.568;18.734;2023-04-27T05:45:24;99813.06;;;6.04;76.57
51759;BME280;66684;47.568;18.734;2023-04-27T05:47:50;99802.81;;;6.04;76.04
51759;BME280;66684;47.568;18.734;2023-04-27T05:50:16;99816.13;;;6.26;73.42
51759;BME280;66684;47.568;18.734;2023-04-27T05:52:42;99820.97;;;6.49;73.74
51759;BME280;66684;47.568;18.734;2023-04-27T05:55:08;99816.56;;;6.91;72.61
51759;BME280;66684;47.568;18.734;2023-04-27T05:57:34;99807.38;;;7.10;70.58
51759;BME280;66684;47.568;18.734;2023-04-27T06:00:00;99803.28;;;7.28;67.65
51759;BME280;66684;47.568;18.734;2023-04-27T06:02:26;99809.13;;;7.25;66.24
51759;BME280;66684;47.568;18.734;2023-04-27T06:04:52;99812.84;;;7.16;67.23
51759;BME280;66684;47.568;18.734;2023-04-27T06:07:17;99813.56;;;7.43;67.76
51759;BME280;66684;47.568;18.734;2023-04-27T06:09:43;99812.09;;;7.63;63.05
51759;BME280;66684;47.568;18.734;2023-04-27T06:12:09;99809.84;;;7.69;62.78
51759;BME280;66684;47.568;18.734;2023-04-27T06:14:36;99816.41;;;7.95;60.08
51759;BME280;66684;47.568;18.734;2023-04-27T06:17:02;99816.41;;;7.95;64.35
51759;BME280;66684;47.568;18.734;2023-04-27T06:19:28;99825.75;;;8.09;63.64
51759;BME280;66684;47.568;18.734;2023-04-27T06:21:54;99821.91;;;8.01;63.10
51759;BME280;66684;47.568;18.734;2023-04-27T06:24:20;99826.66;;;8.09;64.86
51759;BME280;66684;47.568;18.734;2023-04-27T06:26:48;99821.59;;;8.11;62.62
51759;BME280;66684;47.568;18.734;2023-04-27T06:29:14;99832.53;;;8.07;64.76
51759;BME280;66684;47.568;18.734;2023-04-27T06:31:40;99826.03;;;8.14;59.06
51759;BME280;66684;47.568;18.734;2023-04-27T06:34:06;99829.19;;;8.24;60.13
51759;BME280;66684;47.568;18.734;2023-04-27T06:36:32;99827.81;;;8.31;62.29
51759;BME280;66684;47.568;18.734;2023-04-27T06:38:58;99822.12;;;8.36;56.74
51759;BME280;66684;47.568;18.734;2023-04-27T06:41:25;99828.13;;;8.70;61.23
51759;BME280;66684;47.568;18.734;2023-04-27T06:43:52;99830.41;;;8.63;61.53
51759;BME280;66684;47.568;18.734;2023-04-27T06:46:18;99845.38;;;8.71;62.85
51759;BME280;66684;47.568;18.734;2023-04-27T06:48:44;99832.81;;;8.60;55.62
51759;BME280;66684;47.568;18.734;2023-04-27T06:51:11;99832.91;;;8.62;56.78
51759;BME280;66684;47.568;18.734;2023-04-27T06:53:38;99833.63;;;8.43;59.08
51759;BME280;66684;47.568;18.734;2023-04-27T06:56:05;99837.25;;;8.47;54.85
51759;BME280;66684;47.568;18.734;2023-04-27T06:58:31;99835.88;;;8.70;54.79
51759;BME280;66684;47.568;18.734;2023-04-27T07:00:57;99843.25;;;8.80;52.83
51759;BME280;66684;47.568;18.734;2023-04-27T07:03:23;99843.03;;;8.75;52.37
51759;BME280;66684;47.568;18.734;2023-04-27T07:05:48;99832.78;;;8.93;52.78
51759;BME280;66684;47.568;18.734;2023-04-27T07:08:16;99843.09;;;9.11;50.54
51759;BME280;66684;47.568;18.734;2023-04-27T07:10:42;99847.69;;;9.16;52.33
51759;BME280;66684;47.568;18.734;2023-04-27T07:13:07;99850.31;;;9.00;52.78
51759;BME280;66684;47.568;18.734;2023-04-27T07:15:33;99845.31;;;9.03;49.95
51759;BME280;66684;47.568;18.734;2023-04-27T07:17:59;99843.66;;;9.22;49.63
51759;BME280;66684;47.568;18.734;2023-04-27T07:20:25;99845.19;;;9.36;47.32
51759;BME280;66684;47.568;18.734;2023-04-27T07:22:51;99845.19;;;9.36;47.73
51759;BME280;66684;47.568;18.734;2023-04-27T07:25:18;99836.31;;;9.47;46.00
51759;BME280;66684;47.568;18.734;2023-04-27T07:27:43;99847.72;;;9.34;46.83
51759;BME280;66684;47.568;18.734;2023-04-27T07:30:10;99838.44;;;9.38;44.25
51759;BME280;66684;47.568;18.734;2023-04-27T07:32:42;99843.13;;;9.29;45.55
51759;BME280;66684;47.568;18.734;2023-04-27T07:35:08;99852.56;;;9.28;45.33
51759;BME280;66684;47.568;18.734;2023-04-27T07:37:35;99853.63;;;9.32;44.85
51759;BME280;66684;47.568;18.734;2023-04-27T07:40:03;99856.50;;;9.38;47.92
51759;BME280;66684;47.568;18.734;2023-04-27T07:42:41;99853.41;;;9.45;47.26
51759;BME280;66684;47.568;18.734;2023-04-27T07:45:08;99853.50;;;9.64;47.55
51759;BME280;66684;47.568;18.734;2023-04-27T07:47:34;99854.06;;;9.77;46.15
51759;BME280;66684;47.568;18.734;2023-04-27T07:50:01;99855.84;;;9.78;46.08
51759;BME280;66684;47.568;18.734;2023-04-27T07:52:26;99858.59;;;9.63;49.50
51759;BME280;66684;47.568;18.734;2023-04-27T07:54:52;99858.19;;;9.91;49.24
51759;BME280;66684;47.568;18.734;2023-04-27T07:57:18;99856.53;;;9.93;48.64
51759;BME280;66684;47.568;18.734;2023-04-27T07:59:44;99861.28;;;10.02;47.91
51759;BME280;66684;47.568;18.734;2023-04-27T08:02:11;99853.19;;;9.94;48.58
51759;BME280;66684;47.568;18.734;2023-04-27T08:04:37;99857.28;;;10.08;48.37
51759;BME280;66684;47.568;18.734;2023-04-27T08:07:02;99845.31;;;10.10;44.38
51759;BME280;66684;47.568;18.734;2023-04-27T08:09:29;99853.63;;;10.22;46.40
51759;BME280;66684;47.568;18.734;2023-04-27T08:11:56;99855.25;;;10.20;45.94
51759;BME280;66684;47.568;18.734;2023-04-27T08:14:22;99852.06;;;10.24;47.13
51759;BME280;66684;47.568;18.734;2023-04-27T08:16:48;99851.41;;;10.30;45.86
51759;BME280;66684;47.568;18.734;2023-04-27T08:19:16;99858.78;;;10.22;46.13
51759;BME280;66684;47.568;18.734;2023-04-27T08:21:43;99848.25;;;10.18;44.07
51759;BME280;66684;47.568;18.734;2023-04-27T08:24:09;99851.91;;;10.41;45.83
51759;BME280;66684;47.568;18.734;2023-04-27T08:26:35;99851.91;;;10.41;44.19
51759;BME280;66684;47.568;18.734;2023-04-27T08:29:01;99843.78;;;10.32;45.05
51759;BME280;66684;47.568;18.734;2023-04-27T08:31:27;99854.41;;;10.02;45.53
51759;BME280;66684;47.568;18.734;2023-04-27T08:33:53;99846.00;;;10.06;44.40
51759;BME280;66684;47.568;18.734;2023-04-27T08:36:21;99841.75;;;10.44;44.83
51759;BME280;66684;47.568;18.734;2023-04-27T08:38:51;99849.41;;;10.62;44.25
51759;BME280;66684;47.568;18.734;2023-04-27T08:41:20;99859.13;;;10.48;44.88
51759;BME280;66684;47.568;18.734;2023-04-27T08:43:47;99845.25;;;10.46;44.19
51759;BME280;66684;47.568;18.734;2023-04-27T08:46:24;99844.31;;;10.63;43.17
51759;BME280;66684;47.568;18.734;2023-04-27T08:48:53;99836.53;;;10.83;42.47
51759;BME280;66684;47.568;18.734;2023-04-27T08:51:20;99845.94;;;10.61;41.39
51759;BME280;66684;47.568;18.734;2023-04-27T08:53:50;99840.37;;;10.52;41.79
51759;BME280;66684;47.568;18.734;2023-04-27T08:56:20;99838.16;;;10.80;42.57
51759;BME280;66684;47.568;18.734;2023-04-27T08:58:50;99839.94;;;10.82;40.97
51759;BME280;66684;47.568;18.734;2023-04-27T09:01:16;99840.31;;;10.70;40.32
51759;BME280;66684;47.568;18.734;2023-04-27T09:03:42;99837.97;;;10.95;39.49
51759;BME280;66684;47.568;18.734;2023-04-27T09:06:12;99840.69;;;11.19;39.62
51759;BME280;66684;47.568;18.734;2023-04-27T09:08:48;99830.47;;;11.22;41.03
51759;BME280;66684;47.568;18.734;2023-04-27T09:11:27;99824.59;;;11.26;39.74
51759;BME280;66684;47.568;18.734;2023-04-27T09:13:54;99824.72;;;11.29;39.60
51759;BME280;66684;47.568;18.734;2023-04-27T09:16:25;99816.59;;;11.20;40.33
51759;BME280;66684;47.568;18.734;2023-04-27T09:18:51;99823.78;;;11.27;41.16
51759;BME280;66684;47.568;18.734;2023-04-27T09:21:24;99830.63;;;11.06;41.56
51759;BME280;66684;47.568;18.734;2023-04-27T09:23:50;99821.19;;;11.27;42.61
51759;BME280;66684;47.568;18.734;2023-04-27T09:26:24;99824.59;;;11.26;40.53
51759;BME280;66684;47.568;18.734;2023-04-27T09:28:53;99818.16;;;11.38;40.45
51759;BME280;66684;47.568;18.734;2023-04-27T09:31:19;99811.25;;;11.59;39.49
51759;BME280;66684;47.568;18.734;2023-04-27T09:33:45;99824.16;;;11.80;40.97
51759;BME280;66684;47.568;18.734;2023-04-27T09:36:19;99812.34;;;11.43;41.39
51759;BME280;66684;47.568;18.734;2023-04-27T09:38:45;99827.50;;;11.13;42.34
51759;BME280;66684;47.568;18.734;2023-04-27T09:41:12;99826.31;;;10.86;42.54
51759;BME280;66684;47.568;18.734;2023-04-27T09:43:38;99819.84;;;10.95;41.98
51759;BME280;66684;47.568;18.734;2023-04-27T09:46:04;99820.44;;;11.51;42.69
51759;BME280;66684;47.568;18.734;2023-04-27T09:48:30;99828.69;;;11.84;41.11
51759;BME280;66684;47.568;18.734;2023-04-27T09:50:56;99820.16;;;11.66;41.21
51759;BME280;66684;47.568;18.734;2023-04-27T09:53:27;99820.69;;;11.79;41.82
51759;BME280;66684;47.568;18.734;2023-04-27T09:56:02;99813.09;;;11.82;43.04
51759;BME280;66684;47.568;18.734;2023-04-27T10:09:13;99812.91;;;11.79;41.58
51759;BME280;66684;47.568;18.734;2023-04-27T10:11:42;99804.44;;;11.61;41.78
51759;BME280;66684;47.568;18.734;2023-04-27T10:14:15;99808.69;;;11.59;42.29
51759;BME280;66684;47.568;18.734;2023-04-27T10:16:53;99810.28;;;11.34;42.02
51759;BME280;66684;47.568;18.734;2023-04-27T10:19:20;99806.03;;;11.57;44.67
51759;BME280;66684;47.568;18.734;2023-04-27T10:21:58;99814.19;;;11.68;42.88
51759;BME280;66684;47.568;18.734;2023-04-27T10:24:35;99817.53;;;11.86;41.59
51759;BME280;66684;47.568;18.734;2023-04-27T10:27:09;99805.13;;;12.00;39.50
51759;BME280;66684;47.568;18.734;2023-04-27T10:29:43;99800.03;;;12.50;41.40
51759;BME280;66684;47.568;18.734;2023-04-27T10:32:11;99816.13;;;12.17;42.35
51759;BME280;66684;47.568;18.734;2023-04-27T10:34:38;99812.22;;;12.06;41.96
51759;BME280;66684;47.568;18.734;2023-04-27T10:37:06;99811.72;;;12.14;42.62
51759;BME280;66684;47.568;18.734;2023-04-27T10:39:43;99808.47;;;12.68;40.59
51759;BME280;66684;47.568;18.734;2023-04-27T10:42:10;99812.53;;;12.85;40.98
51759;BME280;66684;47.568;18.734;2023-04-27T10:44:37;99807.41;;;12.63;39.83
51759;BME280;66684;47.568;18.734;2023-04-27T10:47:14;99807.91;;;11.82;40.95
51759;BME280;66684;47.568;18.734;2023-04-27T10:49:41;99811.28;;;11.81;41.16
51759;BME280;66684;47.568;18.734;2023-04-27T10:52:07;99793.50;;;11.68;42.56
51759;BME280;66684;47.568;18.734;2023-04-27T10:54:34;99803.25;;;11.75;41.04
51759;BME280;66684;47.568;18.734;2023-04-27T10:57:09;99808.78;;;11.62;40.97
51759;BME280;66684;47.568;18.734;2023-04-27T10:59:47;99819.84;;;11.80;42.00
51759;BME280;66684;47.568;18.734;2023-04-27T11:02:14;99815.97;;;11.90;43.47
51759;BME280;66684;47.568;18.734;2023-04-27T11:04:40;99817.63;;;11.88;45.27
51759;BME280;66684;47.568;18.734;2023-04-27T11:07:07;99812.94;;;12.24;40.30
51759;BME280;66684;47.568;18.734;2023-04-27T11:09:35;99802.19;;;12.37;37.66
51759;BME280;66684;47.568;18.734;2023-04-27T11:12:05;99793.63;;;12.38;39.36
51759;BME280;66684;47.568;18.734;2023-04-27T11:14:35;99782.28;;;12.36;40.67
51759;BME280;66684;47.568;18.734;2023-04-27T11:17:03;99795.63;;;12.23;40.95
51759;BME280;66684;47.568;18.734;2023-04-27T11:19:29;99796.19;;;12.14;41.60
51759;BME280;66684;47.568;18.734;2023-04-27T11:22:05;99790.09;;;12.38;39.91
51759;BME280;66684;47.568;18.734;2023-04-27T11:24:32;99785.16;;;12.44;38.61
51759;BME280;66684;47.568;18.734;2023-04-27T11:26:58;99789.97;;;12.57;38.93
51759;BME280;66684;47.568;18.734;2023-04-27T11:29:24;99792.06;;;12.69;39.58
51759;BME280;66684;47.568;18.734;2023-04-27T11:31:50;99788.03;;;12.52;40.55
51759;BME280;66684;47.568;18.734;2023-04-27T11:34:17;99796.22;;;12.16;39.32
51759;BME280;66684;47.568;18.734;2023-04-27T11:36:43;99798.19;;;12.46;39.97
51759;BME280;66684;47.568;18.734;2023-04-27T11:39:16;99788.25;;;12.58;39.18
51759;BME280;66684;47.568;18.734;2023-04-27T11:41:46;99785.66;;;12.58;39.91
51759;BME280;66684;47.568;18.734;2023-04-27T11:44:12;99779.94;;;12.68;39.31
51759;BME280;66684;47.568;18.734;2023-04-27T11:46:38;99785.97;;;13.18;40.12
51759;BME280;66684;47.568;18.734;2023-04-27T11:49:06;99789.91;;;12.81;38.28
51759;BME280;66684;47.568;18.734;2023-04-27T11:51:35;99782.63;;;12.46;39.48
51759;BME280;66684;47.568;18.734;2023-04-27T11:54:06;99792.56;;;12.33;40.12
51759;BME280;66684;47.568;18.734;2023-04-27T11:56:39;99786.69;;;12.63;39.01
51759;BME280;66684;47.568;18.734;2023-04-27T11:59:17;99782.59;;;12.69;40.69
51759;BME280;66684;47.568;18.734;2023-04-27T12:01:43;99794.22;;;13.06;40.68
51759;BME280;66684;47.568;18.734;2023-04-27T12:04:09;99784.16;;;13.15;40.30
51759;BME280;66684;47.568;18.734;2023-04-27T12:06:35;99769.38;;;12.87;39.30
51759;BME280;66684;47.568;18.734;2023-04-27T12:09:02;99770.69;;;13.53;38.33
51759;BME280;66684;47.568;18.734;2023-04-27T12:11:29;99777.06;;;13.35;37.45
51759;BME280;66684;47.568;18.734;2023-04-27T12:13:55;99764.03;;;13.61;35.75
51759;BME280;66684;47.568;18.734;2023-04-27T12:16:22;99774.41;;;13.61;36.84
51759;BME280;66684;47.568;18.734;2023-04-27T12:18:50;99767.06;;;13.47;37.95
51759;BME280;66684;47.568;18.734;2023-04-27T12:21:17;99768.94;;;13.52;38.01
51759;BME280;66684;47.568;18.734;2023-04-27T12:23:45;99759.59;;;13.87;35.81
51759;BME280;66684;47.568;18.734;2023-04-27T12:26:11;99758.88;;;14.21;34.81
51759;BME280;66684;47.568;18.734;2023-04-27T12:28:37;99772.34;;;13.50;37.81
51759;BME280;66684;47.568;18.734;2023-04-27T12:31:04;99766.53;;;13.31;35.87
51759;BME280;66684;47.568;18.734;2023-04-27T12:33:30;99783.34;;;12.65;37.07
51759;BME280;66684;47.568;18.734;2023-04-27T12:35:56;99765.84;;;12.60;37.72
51759;BME280;66684;47.568;18.734;2023-04-27T12:38:22;99764.28;;;13.16;36.34
51759;BME280;66684;47.568;18.734;2023-04-27T12:40:48;99756.69;;;13.76;35.08
51759;BME280;66684;47.568;18.734;2023-04-27T12:43:14;99743.44;;;13.67;36.38
51759;BME280;66684;47.568;18.734;2023-04-27T12:45:40;99754.03;;;13.74;37.37
51759;BME280;66684;47.568;18.734;2023-04-27T12:48:07;99757.16;;;13.91;37.15
51759;BME280;66684;47.568;18.734;2023-04-27T12:50:35;99752.97;;;14.56;37.76
51759;BME280;66684;47.568;18.734;2023-04-27T12:53:01;99748.56;;;14.24;35.60
51759;BME280;66684;47.568;18.734;2023-04-27T12:55:27;99750.19;;;14.50;37.06
51759;BME280;66684;47.568;18.734;2023-04-27T12:57:53;99749.37;;;14.21;35.38
51759;BME280;66684;47.568;18.734;2023-04-27T13:00:19;99756.84;;;14.11;34.92
51759;BME280;66684;47.568;18.734;2023-04-27T13:02:45;99749.53;;;13.97;35.17
51759;BME280;66684;47.568;18.734;2023-04-27T13:05:11;99752.62;;;13.84;33.56